Time;durP1;ratioP1;P1;durP2;ratioP2;P2;SDS_P1;SDS_P2;PMS_P1;PMS_P2;Temp;Humidity;BMP_temperature;BMP_pressure;BME280_temperature;BME280_humidity;BME280_pressure;Samples;Min_cycle;Max_cycle;Signal;HPM_P1;HPM_P2
2023/10/10 08:15:56;;;;;;;9.30;5.07;;;;;;;22.31;59.35;99459.84;5171837;27;20564;-82
2023/10/10 08:21:10;;;;;;;10.73;5.57;;;;;;;25.35;51.71;99490.00;5170340;27;41468;-82
2023/10/10 08:23:42;;;;;;;6.63;5.20;;;;;;;26.60;48.18;99493.56;5167645;27;42975;-82
2023/10/10 08:26:17;;;;;;;8.23;5.13;;;;;;;27.40;46.28;99501.97;5169262;27;41234;-82
2023/10/10 08:28:46;;;;;;;11.57;5.77;;;;;;;28.06;44.97;99509.13;5167417;27;40042;-82
2023/10/10 08:31:15;;;;;;;9.63;5.30;;;;;;;28.42;43.63;99502.84;5170654;27;41930;-82
2023/10/10 08:33:46;;;;;;;7.60;5.63;;;;;;;28.11;43.96;99489.47;5151724;27;41865;-84
2023/10/10 08:36:23;;;;;;;6.37;5.13;;;;;;;28.16;43.99;99511.53;5151732;27;41302;-82
2023/10/10 08:38:51;;;;;;;9.40;5.40;;;;;;;28.55;42.84;99511.16;5167873;27;39889;-83
2023/10/10 08:41:23;;;;;;;9.67;5.20;;;;;;;29.08;41.54;99497.97;5172405;27;40975;-84
2023/10/10 08:43:57;;;;;;;8.50;5.50;;;;;;;29.69;40.18;99517.25;5168679;27;43832;-82
2023/10/10 08:46:29;;;;;;;6.87;5.13;;;;;;;30.29;38.93;99503.63;5151702;27;41915;-83
2023/10/10 08:48:59;;;;;;;7.70;5.07;;;;;;;30.88;37.74;99529.38;5168819;27;38480;-82
2023/10/10 08:51:33;;;;;;;8.67;5.23;;;;;;;31.04;37.10;99535.25;5168628;27;40526;-82
2023/10/10 08:54:02;;;;;;;9.87;5.70;;;;;;;31.97;35.52;99535.13;5167147;27;44070;-83
2023/10/10 08:56:37;;;;;;;7.23;5.73;;;;;;;32.71;34.68;99518.91;5151605;27;41466;-83
2023/10/10 08:59:06;;;;;;;10.00;5.80;;;;;;;33.49;34.37;99529.41;5166744;27;39788;-84
2023/10/10 09:01:35;;;;;;;8.20;5.38;;;;;;;33.72;33.10;99540.56;5168518;27;40790;-81
2023/10/10 09:04:04;;;;;;;9.35;5.55;;;;;;;33.57;32.32;99537.34;5168065;27;41885;-82
2023/10/10 09:06:44;;;;;;;6.82;5.32;;;;;;;33.77;32.37;99526.16;5168826;27;41005;-83
2023/10/10 09:11:56;;;;;;;6.18;4.45;;;;;;;33.10;33.23;99534.22;5167860;27;40883;-84
2023/10/10 09:14:39;;;;;;;6.57;5.18;;;;;;;32.26;34.76;99528.25;5151524;27;43008;-81
2023/10/10 09:17:10;;;;;;;9.47;5.63;;;;;;;31.54;36.11;99513.72;5152686;27;40921;-84
2023/10/10 09:19:49;;;;;;;8.70;5.13;;;;;;;30.95;37.19;99509.19;5152226;27;38965;-83
2023/10/10 09:22:29;;;;;;;9.37;5.80;;;;;;;30.39;37.92;99503.25;5166607;27;41970;-81
2023/10/10 09:24:59;;;;;;;7.17;4.77;;;;;;;29.99;38.53;99486.75;5167924;27;43779;-83
2023/10/10 09:27:28;;;;;;;7.97;4.90;;;;;;;29.79;38.93;99487.69;5155338;27;41369;-81
2023/10/10 09:30:00;;;;;;;8.77;4.93;;;;;;;29.84;39.01;99487.91;5155980;27;39986;-81
2023/10/10 09:32:36;;;;;;;7.50;4.57;;;;;;;29.90;38.35;99496.13;5155267;27;41214;-84
2023/10/10 09:35:06;;;;;;;7.37;5.17;;;;;;;29.65;38.15;99500.44;5154985;27;42707;-85
2023/10/10 09:37:38;;;;;;;9.43;5.10;;;;;;;29.30;39.24;99480.50;5138814;27;42981;-84
2023/10/10 09:40:15;;;;;;;10.53;4.37;;;;;;;29.39;38.77;99484.78;5153458;27;40659;-81
2023/10/10 09:43:03;;;;;;;6.90;4.23;;;;;;;29.61;39.26;99478.16;5154570;27;40708;-84
2023/10/10 09:48:46;;;;;;;7.97;4.37;;;;;;;29.99;38.12;99480.44;5137040;27;42438;-81
2023/10/10 09:51:30;;;;;;;7.40;4.43;;;;;;;30.73;36.83;99493.19;5152236;27;41128;-81
2023/10/10 09:54:15;;;;;;;7.87;4.43;;;;;;;30.97;36.34;99498.88;5151151;27;42472;-81
2023/10/10 09:56:47;;;;;;;6.67;4.50;;;;;;;31.66;35.23;99505.72;5136105;27;41802;-81
2023/10/10 09:59:16;;;;;;;7.87;4.50;;;;;;;32.58;34.02;99520.88;5135882;27;41066;-86
2023/10/10 10:01:48;;;;;;;5.38;4.47;;;;;;;32.92;33.61;99517.66;5119249;27;38855;-82
2023/10/10 10:04:25;;;;;;;9.95;4.70;;;;;;;33.99;32.09;99512.78;5152703;27;41768;-85
2023/10/10 10:07:12;;;;;;;5.88;4.28;;;;;;;35.81;29.38;99533.13;5153516;27;42169;-82
2023/10/10 10:09:55;;;;;;;9.45;4.40;;;;;;;36.53;28.98;99537.09;5152745;27;42152;-83
2023/10/10 10:12:48;;;;;;;7.07;4.25;;;;;;;36.83;28.25;99547.03;5136660;27;39079;-82
2023/10/10 10:15:28;;;;;;;6.47;3.90;;;;;;;36.72;28.58;99545.19;5142581;27;41703;-82
2023/10/10 10:18:12;;;;;;;5.78;3.97;;;;;;;36.61;28.63;99539.44;5150891;27;43242;-82
2023/10/10 10:20:48;;;;;;;7.45;3.85;;;;;;;36.02;28.73;99521.44;5155511;27;42150;-83
2023/10/10 10:23:25;;;;;;;5.63;4.43;;;;;;;35.58;28.79;99523.81;5152415;27;40991;-83
2023/10/10 10:26:04;;;;;;;6.78;4.20;;;;;;;35.11;29.46;99500.94;5137174;27;40921;-83
2023/10/10 10:28:35;;;;;;;6.32;5.07;;;;;;;35.01;29.24;99500.69;5137263;27;42135;-82
2023/10/10 10:31:07;;;;;;;7.68;3.90;;;;;;;35.27;28.94;99505.75;5150993;27;42171;-85
2023/10/10 10:33:52;;;;;;;6.30;4.50;;;;;;;35.57;28.52;99493.75;5136434;27;38991;-84
2023/10/10 10:36:28;;;;;;;8.02;4.32;;;;;;;35.91;27.75;99506.63;5154301;27;41320;-84
2023/10/10 10:41:43;;;;;;;5.32;3.72;;;;;;;36.68;27.17;99523.56;5135585;27;41380;-83
2023/10/10 10:44:12;;;;;;;5.18;4.00;;;;;;;36.53;27.58;99497.63;5153323;27;39761;-83
2023/10/10 10:46:48;;;;;;;5.45;4.07;;;;;;;36.90;27.16;99514.56;5135492;27;41000;-84
2023/10/10 10:49:22;;;;;;;5.97;3.97;;;;;;;37.71;26.12;99524.94;5151878;27;43131;-82
2023/10/10 10:52:10;;;;;;;3.92;3.53;;;;;;;38.42;25.26;99525.00;5135337;27;42219;-82
2023/10/10 10:54:41;;;;;;;5.85;3.95;;;;;;;39.04;24.53;99513.44;5152151;27;40165;-85
2023/10/10 10:57:13;;;;;;;5.90;3.92;;;;;;;39.26;24.31;99511.38;5135524;27;40837;-82
2023/10/10 10:59:54;;;;;;;5.28;3.50;;;;;;;39.41;23.67;99503.19;5151817;27;43169;-82
2023/10/10 11:02:30;;;;;;;4.93;3.78;;;;;;;40.12;23.31;99497.13;5136366;27;42443;-82
2023/10/10 11:04:59;;;;;;;4.22;3.50;;;;;;;40.47;22.35;99508.31;5135330;27;39113;-84
2023/10/10 11:07:41;;;;;;;7.22;4.00;;;;;;;40.79;22.92;99485.91;5152786;27;41142;-84
2023/10/10 11:10:10;;;;;;;6.28;3.90;;;;;;;41.13;22.11;99485.31;5151589;27;41611;-82
2023/10/10 11:12:40;;;;;;;4.47;3.53;;;;;;;41.30;22.37;99494.16;5153856;27;42529;-84
2023/10/10 11:15:10;;;;;;;5.22;3.75;;;;;;;41.33;22.31;99490.00;5152124;27;39660;-86
2023/10/10 11:17:42;;;;;;;6.43;3.92;;;;;;;40.98;22.56;99476.97;5153301;27;40366;-82
2023/10/10 11:22:55;;;;;;;5.07;3.55;;;;;;;39.35;24.00;99461.78;5153422;27;41961;-87
2023/10/10 11:25:41;;;;;;;5.55;3.40;;;;;;;39.31;24.05;99455.13;5152885;27;39692;-82
2023/10/10 11:28:21;;;;;;;5.00;3.58;;;;;;;40.11;22.42;99465.75;5136141;27;40883;-84
2023/10/10 11:30:51;;;;;;;5.10;3.60;;;;;;;40.55;22.23;99470.88;5135970;27;41834;-82
2023/10/10 11:33:46;;;;;;;5.47;3.30;;;;;;;41.11;21.22;99466.13;5154160;27;42476;-83
2023/10/10 11:36:29;;;;;;;6.68;3.35;;;;;;;41.55;21.50;99443.22;5153334;27;38908;-82
2023/10/10 11:39:16;;;;;;;4.35;3.42;;;;;;;41.75;21.07;99464.59;5152839;27;40547;-85
2023/10/10 11:41:46;;;;;;;4.38;3.65;;;;;;;41.82;20.90;99451.19;5134473;27;41784;-85
2023/10/10 11:44:20;;;;;;;6.35;3.42;;;;;;;41.66;21.03;99444.88;5152901;27;42046;-84
2023/10/10 11:46:48;;;;;;;4.50;3.15;;;;;;;41.49;20.87;99444.34;5134992;27;39020;-83
2023/10/10 11:49:17;;;;;;;6.35;3.30;;;;;;;41.51;20.68;99454.09;5134403;27;42507;-84
2023/10/10 11:51:46;;;;;;;4.70;3.67;;;;;;;41.68;20.57;99448.19;5152402;27;43611;-83
2023/10/10 11:54:25;;;;;;;5.70;3.20;;;;;;;41.66;20.48;99449.59;5151887;27;43220;-83
2023/10/10 11:56:52;;;;;;;5.57;3.63;;;;;;;41.49;21.20;99417.38;5153107;27;40481;-84
2023/10/10 11:59:20;;;;;;;3.88;3.03;;;;;;;41.72;21.54;99424.25;5159952;27;40719;-82
2023/10/10 12:02:07;;;;;;;4.25;3.38;;;;;;;41.83;20.90;99427.81;5158037;27;43777;-84
2023/10/10 12:04:37;;;;;;;5.60;4.13;;;;;;;42.02;20.46;99426.06;5152092;27;41006;-85
2023/10/10 12:07:05;;;;;;;6.18;3.60;;;;;;;42.39;20.67;99402.44;5134637;27;39151;-83
2023/10/10 12:09:34;;;;;;;5.80;4.13;;;;;;;42.82;19.14;99406.22;5152842;27;42389;-84
2023/10/10 12:12:03;;;;;;;5.60;3.72;;;;;;;43.11;19.14;99420.16;5152225;27;42856;-84
2023/10/10 12:14:32;;;;;;;6.15;3.95;;;;;;;43.50;18.72;99434.78;5152231;27;42940;-83
2023/10/10 12:17:05;;;;;;;4.68;3.60;;;;;;;43.47;19.27;99440.13;5153479;27;39078;-83
2023/10/10 12:19:37;;;;;;;6.90;3.70;;;;;;;43.26;19.46;99439.53;5151658;27;42000;-85
2023/10/10 12:22:10;;;;;;;8.45;4.05;;;;;;;42.80;19.26;99442.75;5150394;27;42846;-84
2023/10/10 12:24:40;;;;;;;4.85;3.30;;;;;;;42.69;19.75;99435.59;5135558;27;41412;-86
2023/10/10 12:27:08;;;;;;;4.47;3.40;;;;;;;42.78;19.93;99425.50;5136005;27;39334;-84
2023/10/10 12:29:39;;;;;;;6.75;4.18;;;;;;;42.76;19.75;99429.69;5152930;27;40976;-83
2023/10/10 12:32:15;;;;;;;4.25;3.40;;;;;;;42.74;19.49;99420.78;5151056;27;42881;-83
2023/10/10 12:34:43;;;;;;;5.60;3.53;;;;;;;42.46;19.03;99403.75;5149407;27;42158;-85
2023/10/10 12:37:15;;;;;;;5.97;3.70;;;;;;;42.26;19.51;99415.88;5151712;27;38825;-82
2023/10/10 12:39:44;;;;;;;6.38;3.80;;;;;;;41.79;19.64;99410.03;5134152;27;40487;-85
2023/10/10 12:42:12;;;;;;;5.18;3.60;;;;;;;41.07;20.31;99403.03;5151434;27;43684;-83
2023/10/10 12:44:39;;;;;;;6.30;3.42;;;;;;;40.85;20.09;99384.75;5151301;27;41497;-83
2023/10/10 12:47:07;;;;;;;5.70;3.97;;;;;;;40.79;19.83;99402.56;5152535;27;40208;-85
2023/10/10 12:49:44;;;;;;;6.82;4.32;;;;;;;40.62;20.26;99396.41;5152454;27;41551;-82
2023/10/10 12:52:12;;;;;;;7.93;4.80;;;;;;;40.31;20.36;99389.22;5134597;27;42407;-82
2023/10/10 12:54:41;;;;;;;7.35;4.35;;;;;;;40.00;20.56;99378.06;5150516;27;42271;-82
2023/10/10 12:57:14;;;;;;;5.10;3.63;;;;;;;39.88;20.57;99385.81;5134237;27;39198;-81
2023/10/10 12:59:46;;;;;;;5.00;3.58;;;;;;;39.73;20.66;99372.69;5149971;27;42618;-82
2023/10/10 13:02:16;;;;;;;6.20;4.18;;;;;;;39.68;21.47;99369.09;5137318;27;41430;-83
2023/10/10 13:04:46;;;;;;;5.85;4.00;;;;;;;39.38;21.59;99367.84;5137382;27;42431;-85
2023/10/10 13:07:16;;;;;;;8.20;4.55;;;;;;;39.09;21.23;99361.06;5155195;27;38755;-82
2023/10/10 13:09:46;;;;;;;7.68;3.83;;;;;;;38.98;21.81;99353.81;5137166;27;42072;-83
2023/10/10 13:12:32;;;;;;;5.93;4.22;;;;;;;38.64;21.72;99320.06;5154929;27;42701;-86
2023/10/10 13:15:17;;;;;;;5.70;3.60;;;;;;;38.89;21.59;99358.16;5137243;27;41600;-83
2023/10/10 13:17:53;;;;;;;5.55;3.33;;;;;;;38.74;21.52;99348.66;5152627;27;41261;-84
2023/10/10 13:20:21;;;;;;;5.75;3.30;;;;;;;38.75;21.87;99358.63;5155421;27;40775;-85
2023/10/10 13:22:50;;;;;;;5.00;3.47;;;;;;;38.48;21.60;99346.78;5155363;27;43779;-83
2023/10/10 13:25:20;;;;;;;6.47;3.83;;;;;;;38.11;21.85;99335.69;5156593;27;42884;-82
2023/10/10 13:27:52;;;;;;;7.45;3.58;;;;;;;38.02;21.79;99340.84;5155721;27;40910;-84
2023/10/10 13:30:19;;;;;;;5.30;2.92;;;;;;;38.08;22.01;99334.28;5155853;27;42775;-86
2023/10/10 13:32:47;;;;;;;6.13;3.88;;;;;;;38.36;22.23;99340.59;5155647;27;43564;-84
2023/10/10 13:35:14;;;;;;;4.80;3.40;;;;;;;38.36;22.47;99340.59;5137585;27;41834;-82
2023/10/10 13:37:43;;;;;;;4.68;3.60;;;;;;;38.34;22.63;99349.16;5137900;27;39666;-82
2023/10/10 13:40:20;;;;;;;4.03;3.40;;;;;;;38.19;22.33;99345.47;5156184;27;41925;-82
2023/10/10 13:42:50;;;;;;;4.13;3.30;;;;;;;38.06;22.26;99341.16;5151297;27;42671;-84
2023/10/10 13:45:22;;;;;;;4.22;2.85;;;;;;;37.94;22.39;99344.09;5155315;27;42499;-86
2023/10/10 13:47:49;;;;;;;4.28;3.10;;;;;;;37.80;22.83;99340.09;5138912;27;39206;-81
2023/10/10 13:50:31;;;;;;;5.18;3.33;;;;;;;37.59;22.74;99340.91;5137919;27;40504;-84
2023/10/10 13:52:59;;;;;;;4.32;3.45;;;;;;;37.19;23.03;99336.63;5136700;27;42405;-85
2023/10/10 13:55:29;;;;;;;5.63;3.22;;;;;;;36.96;23.67;99337.66;5152829;27;42105;-83
2023/10/10 13:57:58;;;;;;;5.45;3.58;;;;;;;36.77;23.83;99333.53;5153527;27;40922;-83
2023/10/10 14:00:33;;;;;;;6.95;3.47;;;;;;;36.60;24.24;99322.47;5135811;27;40999;-86
2023/10/10 14:03:03;;;;;;;6.40;3.40;;;;;;;36.41;24.45;99323.84;5137794;27;42349;-86
2023/10/10 14:05:33;;;;;;;5.55;3.50;;;;;;;36.06;24.71;99320.50;5152889;27;42613;-82
2023/10/10 14:08:02;;;;;;;6.60;3.65;;;;;;;35.60;24.91;99327.91;5154579;27;40274;-80
2023/10/10 14:10:40;;;;;;;5.77;3.50;;;;;;;35.21;25.46;99322.16;5153031;27;40654;-85
2023/10/10 14:13:21;;;;;;;5.47;3.43;;;;;;;35.01;25.82;99307.97;5153650;27;41968;-87
2023/10/10 14:15:56;;;;;;;5.43;3.17;;;;;;;34.98;25.87;99302.13;5137204;27;41996;-82
2023/10/10 14:18:28;;;;;;;6.03;3.73;;;;;;;34.96;25.67;99305.13;5152146;27;39774;-86
2023/10/10 14:20:56;;;;;;;7.57;3.83;;;;;;;34.94;25.57;99299.00;5154578;27;41740;-86
2023/10/10 14:23:25;;;;;;;5.00;3.63;;;;;;;34.88;26.25;99294.47;5135701;27;41777;-81
2023/10/10 14:26:03;;;;;;;5.30;3.47;;;;;;;34.44;26.14;99299.53;5152353;27;42913;-83
2023/10/10 14:28:33;;;;;;;4.23;2.97;;;;;;;33.91;26.68;99294.06;5150037;27;40989;-81
2023/10/10 14:31:01;;;;;;;4.83;3.23;;;;;;;33.36;26.97;99285.16;5151243;27;42449;-85
2023/10/10 14:33:29;;;;;;;4.37;3.30;;;;;;;32.70;27.41;99261.22;5135082;27;41593;-81
2023/10/10 14:35:56;;;;;;;5.17;3.37;;;;;;;32.35;28.06;99280.19;5152917;27;43708;-85
2023/10/10 14:38:24;;;;;;;4.90;3.20;;;;;;;31.90;28.50;99271.28;5152630;27;40296;-81
2023/10/10 14:40:51;;;;;;;6.30;3.80;;;;;;;31.50;28.91;99270.72;5152710;27;42634;-82
2023/10/10 14:43:19;;;;;;;4.97;3.50;;;;;;;31.14;29.67;99265.88;5135217;27;41635;-83
2023/10/10 14:45:50;;;;;;;7.10;3.43;;;;;;;30.81;29.40;99269.53;5135488;27;41322;-82
2023/10/10 14:48:19;;;;;;;5.57;3.43;;;;;;;30.40;29.74;99249.88;5150646;27;40003;-83
2023/10/10 14:50:52;;;;;;;5.53;3.07;;;;;;;30.14;30.60;99257.06;5152841;27;41143;-81
2023/10/10 14:53:22;;;;;;;5.70;3.57;;;;;;;29.86;30.78;99250.97;5150372;27;42799;-84
2023/10/10 14:55:51;;;;;;;5.67;3.73;;;;;;;29.59;30.84;99255.56;5152578;27;43140;-82
2023/10/10 14:58:21;;;;;;;9.27;3.60;;;;;;;29.18;30.72;99242.00;5135067;27;38919;-82
2023/10/10 15:00:56;;;;;;;6.83;3.80;;;;;;;29.04;31.54;99251.22;5152193;27;42443;-82
2023/10/10 15:03:25;;;;;;;6.10;3.67;;;;;;;28.82;31.64;99248.59;5152347;27;42302;-81
2023/10/10 15:05:53;;;;;;;7.37;4.00;;;;;;;28.59;31.88;99248.03;5153731;27;42348;-84
2023/10/10 15:08:22;;;;;;;4.70;3.33;;;;;;;28.30;32.46;99231.97;5153751;27;40983;-86
2023/10/10 15:10:51;;;;;;;7.43;3.40;;;;;;;28.16;32.21;99253.63;5134469;27;41444;-83
2023/10/10 15:13:19;;;;;;;4.53;3.10;;;;;;;27.96;32.50;99252.63;5154173;27;42574;-86
2023/10/10 15:15:48;;;;;;;6.40;3.90;;;;;;;27.77;33.03;99239.72;5135875;27;42162;-80
2023/10/10 15:18:18;;;;;;;5.50;3.40;;;;;;;27.59;32.95;99233.88;5155459;27;40302;-83
2023/10/10 15:20:48;;;;;;;6.23;3.30;;;;;;;27.41;33.24;99243.34;5156731;27;41801;-83
2023/10/10 15:23:20;;;;;;;6.20;3.93;;;;;;;27.15;33.44;99222.16;5135939;27;42890;-84
2023/10/10 15:25:54;;;;;;;6.63;3.77;;;;;;;26.96;33.43;99224.63;5151854;27;42525;-84
2023/10/10 15:28:23;;;;;;;7.27;3.83;;;;;;;26.80;33.93;99220.25;5148792;27;40095;-85
2023/10/10 15:30:50;;;;;;;7.50;4.57;;;;;;;26.62;34.07;99228.78;5153270;27;42266;-85
2023/10/10 15:33:22;;;;;;;6.50;3.57;;;;;;;26.56;34.05;99242.31;5151520;27;41731;-84
2023/10/10 15:35:52;;;;;;;6.63;4.40;;;;;;;26.37;33.89;99243.72;5134791;27;42346;-81
2023/10/10 15:38:22;;;;;;;7.97;4.07;;;;;;;26.22;34.25;99240.94;5134320;27;39588;-83
2023/10/10 15:40:52;;;;;;;6.37;4.53;;;;;;;26.11;34.19;99235.97;5151929;27;43204;-86
2023/10/10 15:43:19;;;;;;;6.93;4.47;;;;;;;25.98;34.38;99250.19;5151500;27;42772;-83
2023/10/10 15:45:47;;;;;;;7.10;3.90;;;;;;;25.84;34.99;99237.44;5152793;27;42604;-83
2023/10/10 15:48:25;;;;;;;8.73;4.00;;;;;;;25.70;34.81;99238.28;5151845;27;40368;-83
2023/10/10 15:50:57;;;;;;;9.20;4.00;;;;;;;25.55;34.75;99237.34;5152079;27;40603;-85
2023/10/10 15:53:26;;;;;;;7.80;4.20;;;;;;;25.42;34.95;99246.94;5133867;27;43076;-84
2023/10/10 15:56:11;;;;;;;7.33;3.97;;;;;;;25.32;34.94;99240.91;5152953;27;43171;-82
2023/10/10 15:58:42;;;;;;;7.20;3.97;;;;;;;25.18;34.99;99236.25;5151477;27;40290;-81
2023/10/10 16:01:14;;;;;;;7.70;4.17;;;;;;;25.02;35.67;99239.91;5151955;27;42202;-83
2023/10/10 16:03:47;;;;;;;5.93;3.90;;;;;;;24.88;35.40;99240.63;5153078;27;42519;-83
2023/10/10 16:06:18;;;;;;;9.77;4.40;;;;;;;24.74;35.65;99238.69;5150477;27;42971;-81
2023/10/10 16:08:49;;;;;;;9.07;4.50;;;;;;;24.61;35.89;99244.66;5149936;27;40560;-82
2023/10/10 16:11:17;;;;;;;8.40;4.67;;;;;;;24.50;36.18;99244.19;5148434;27;42255;-81
2023/10/10 16:13:46;;;;;;;5.97;3.67;;;;;;;24.34;36.57;99242.41;5153290;27;43784;-83
2023/10/10 16:16:14;;;;;;;6.10;3.50;;;;;;;24.22;36.48;99249.19;5150585;27;43379;-80
2023/10/10 16:18:45;;;;;;;8.30;4.20;;;;;;;24.09;36.76;99244.31;5152431;27;40697;-80
2023/10/10 16:21:15;;;;;;;7.10;4.40;;;;;;;23.94;36.88;99246.88;5135345;27;41079;-80
2023/10/10 16:23:44;;;;;;;6.03;4.27;;;;;;;23.83;37.09;99241.81;5153624;27;42875;-78
2023/10/10 16:26:14;;;;;;;6.17;3.97;;;;;;;23.70;37.30;99238.78;5135067;27;42435;-81
2023/10/10 16:28:42;;;;;;;7.50;4.20;;;;;;;23.51;37.06;99239.09;5134620;27;39093;-81
2023/10/10 16:31:12;;;;;;;7.00;3.73;;;;;;;23.43;37.15;99247.19;5152496;27;41619;-78
2023/10/10 16:33:40;;;;;;;7.17;3.67;;;;;;;23.26;37.43;99236.34;5152323;27;41985;-85
2023/10/10 16:36:16;;;;;;;8.40;3.70;;;;;;;23.15;37.77;99244.78;5153362;27;42393;-83
2023/10/10 16:38:49;;;;;;;5.53;3.33;;;;;;;23.00;38.10;99246.44;5151964;27;39871;-81
2023/10/10 16:41:18;;;;;;;7.13;3.93;;;;;;;22.85;38.05;99240.84;5154803;27;40861;-81
2023/10/10 16:43:46;;;;;;;9.67;4.67;;;;;;;22.69;38.44;99243.47;5137013;27;41797;-83
2023/10/10 16:46:14;;;;;;;6.63;4.10;;;;;;;22.47;38.51;99228.72;5154987;27;42183;-81
2023/10/10 16:48:44;;;;;;;6.83;3.93;;;;;;;22.45;38.79;99244.22;5136763;27;39013;-81
2023/10/10 16:51:13;;;;;;;6.87;4.40;;;;;;;22.31;39.18;99239.41;5154739;27;40842;-82
2023/10/10 16:53:43;;;;;;;6.23;3.97;;;;;;;22.21;39.22;99244.09;5154291;27;42809;-80
2023/10/10 16:56:13;;;;;;;6.97;3.70;;;;;;;22.08;39.44;99249.91;5156032;27;42131;-80
2023/10/10 16:58:46;;;;;;;5.47;3.83;;;;;;;21.95;39.58;99244.06;5152199;27;40945;-83
2023/10/10 17:01:17;;;;;;;7.77;4.00;;;;;;;21.56;39.57;99199.63;5153488;27;41725;-84
2023/10/10 17:03:46;;;;;;;6.37;3.90;;;;;;;21.59;39.87;99227.13;5138628;27;41918;-84
2023/10/10 17:06:17;;;;;;;9.77;4.23;;;;;;;21.53;40.38;99227.75;5139595;27;41337;-83
2023/10/10 17:08:45;;;;;;;9.97;4.73;;;;;;;21.51;40.59;99244.06;5154633;27;39844;-81
2023/10/10 17:11:14;;;;;;;7.07;4.70;;;;;;;21.41;40.93;99239.78;5138881;27;40630;-81
2023/10/10 17:13:42;;;;;;;8.90;5.10;;;;;;;21.31;40.95;99236.31;5139148;27;41989;-79
2023/10/10 17:16:13;;;;;;;7.60;4.53;;;;;;;21.21;41.24;99244.47;5155622;27;42278;-83
2023/10/10 17:18:42;;;;;;;8.03;4.47;;;;;;;21.03;41.22;99243.59;5157095;27;40272;-79
2023/10/10 17:21:12;;;;;;;7.70;4.43;;;;;;;20.97;41.82;99242.38;5138200;27;40633;-83
2023/10/10 17:23:40;;;;;;;6.47;4.40;;;;;;;20.91;41.86;99242.97;5155219;27;42118;-80
2023/10/10 17:26:09;;;;;;;7.10;4.13;;;;;;;20.81;42.46;99231.41;5155619;27;42249;-79
2023/10/10 17:28:39;;;;;;;10.00;4.83;;;;;;;20.71;42.49;99234.16;5156352;27;40065;-82
2023/10/10 17:31:07;;;;;;;5.53;3.70;;;;;;;20.62;42.73;99234.22;5137991;27;40473;-84
2023/10/10 17:33:39;;;;;;;7.33;4.53;;;;;;;20.56;43.20;99234.81;5156478;27;42772;-80
2023/10/10 17:36:07;;;;;;;7.90;4.00;;;;;;;20.49;42.90;99231.03;5137811;27;41093;-80
2023/10/10 17:38:35;;;;;;;9.43;5.10;;;;;;;20.42;43.02;99234.31;5154814;27;40018;-81
2023/10/10 17:41:03;;;;;;;8.00;5.00;;;;;;;20.32;43.21;99228.09;5137360;27;42105;-82
2023/10/10 17:43:31;;;;;;;6.20;4.30;;;;;;;20.25;43.18;99237.78;5154255;27;42560;-80
2023/10/10 17:46:01;;;;;;;10.47;5.27;;;;;;;20.19;43.46;99235.66;5136983;27;42633;-81
2023/10/10 17:48:29;;;;;;;8.00;4.23;;;;;;;20.02;43.53;99226.53;5153725;27;41030;-84
2023/10/10 17:50:57;;;;;;;5.67;4.10;;;;;;;20.03;43.37;99238.97;5136990;27;41101;-84
2023/10/10 17:53:26;;;;;;;6.70;3.40;;;;;;;19.97;43.47;99246.78;5136234;27;42804;-82
2023/10/10 17:55:53;;;;;;;6.30;4.00;;;;;;;19.83;44.15;99228.41;5137032;27;42358;-81
2023/10/10 17:58:21;;;;;;;7.40;4.23;;;;;;;19.84;44.50;99238.19;5136452;27;39091;-79
2023/10/10 18:00:52;;;;;;;8.13;4.77;;;;;;;19.76;44.76;99232.69;5136863;27;41003;-80
2023/10/10 18:03:22;;;;;;;7.83;5.30;;;;;;;19.68;44.75;99236.94;5136192;27;42922;-82
2023/10/10 18:05:50;;;;;;;9.73;5.27;;;;;;;19.62;44.46;99237.53;5154933;27;42438;-85
2023/10/10 18:08:17;;;;;;;5.53;4.03;;;;;;;19.54;44.82;99237.38;5153677;27;40099;-83
2023/10/10 18:10:47;;;;;;;8.13;4.57;;;;;;;19.50;45.23;99238.66;5136364;27;40527;-81
2023/10/10 18:13:15;;;;;;;7.10;4.07;;;;;;;19.43;45.45;99231.28;5136934;27;41731;-79
2023/10/10 18:15:46;;;;;;;8.50;4.20;;;;;;;19.34;45.77;99220.41;5137017;27;41222;-79
2023/10/10 18:18:13;;;;;;;10.10;4.70;;;;;;;19.17;45.54;99204.16;5137346;27;39654;-82
2023/10/10 18:20:43;;;;;;;7.80;4.70;;;;;;;19.28;46.54;99223.69;5137251;27;40722;-81
2023/10/10 18:23:11;;;;;;;8.00;5.03;;;;;;;19.21;46.52;99221.69;5154656;27;43851;-80
2023/10/10 18:25:39;;;;;;;8.77;5.20;;;;;;;19.05;46.39;99210.66;5154553;27;42069;-82
2023/10/10 18:28:07;;;;;;;9.00;5.00;;;;;;;19.11;46.27;99232.44;5154952;27;41371;-82
2023/10/10 18:30:37;;;;;;;7.73;4.57;;;;;;;19.07;46.53;99231.00;5154587;27;41678;-82
2023/10/10 18:33:07;;;;;;;6.33;4.57;;;;;;;18.89;46.44;99222.81;5136219;27;41804;-82
2023/10/10 18:35:36;;;;;;;7.13;4.33;;;;;;;18.95;46.73;99232.97;5136037;27;41194;-83
2023/10/10 18:38:07;;;;;;;7.03;4.73;;;;;;;18.89;47.17;99224.63;5153704;27;38770;-81
2023/10/10 18:40:36;;;;;;;6.97;4.63;;;;;;;18.72;47.57;99204.69;5153515;27;40791;-81
2023/10/10 18:43:06;;;;;;;11.33;6.57;;;;;;;18.80;48.17;99222.75;5137911;27;41366;-80
2023/10/10 18:45:37;;;;;;;11.13;6.80;;;;;;;18.74;47.94;99221.50;5141150;27;40851;-83
2023/10/10 18:48:10;;;;;;;11.17;6.97;;;;;;;18.71;47.90;99224.47;5152100;27;39743;-79
2023/10/10 18:50:38;;;;;;;12.10;6.83;;;;;;;18.64;47.60;99217.97;5153208;27;42199;-82
2023/10/10 18:53:07;;;;;;;10.03;6.83;;;;;;;18.28;47.70;99171.13;5136074;27;42100;-83
2023/10/10 18:55:35;;;;;;;9.77;6.17;;;;;;;18.52;47.70;99227.06;5152699;27;41508;-83
2023/10/10 18:58:05;;;;;;;13.77;5.83;;;;;;;18.36;47.99;99202.59;5135206;27;38834;-80
2023/10/10 19:00:35;;;;;;;11.23;5.93;;;;;;;18.37;48.56;99209.66;5135416;27;42007;-82
2023/10/10 19:03:06;;;;;;;11.23;7.07;;;;;;;18.31;49.52;99211.03;5151067;27;42845;-84
2023/10/10 19:05:34;;;;;;;10.77;6.63;;;;;;;18.15;49.05;99200.00;5154043;27;42321;-80
2023/10/10 19:08:02;;;;;;;11.17;6.87;;;;;;;18.17;48.93;99209.59;5153264;27;40450;-83
2023/10/10 19:10:31;;;;;;;10.43;6.43;;;;;;;18.11;48.85;99218.16;5152287;27;42191;-80
2023/10/10 19:13:00;;;;;;;11.53;6.17;;;;;;;17.83;49.16;99189.41;5153515;27;44747;-79
2023/10/10 19:15:28;;;;;;;9.70;6.17;;;;;;;18.00;49.12;99217.41;5153297;27;41548;-79
2023/10/10 19:17:58;;;;;;;9.00;5.57;;;;;;;17.83;49.24;99194.75;5153889;27;39994;-80
2023/10/10 19:20:32;;;;;;;7.87;5.17;;;;;;;17.88;49.40;99216.66;5154567;27;42482;-80
2023/10/10 19:23:04;;;;;;;7.37;4.80;;;;;;;17.81;49.58;99212.78;5136375;27;43074;-82
2023/10/10 19:25:33;;;;;;;9.50;5.70;;;;;;;17.75;49.42;99205.28;5136112;27;42451;-83
2023/10/10 19:28:01;;;;;;;11.33;5.50;;;;;;;17.68;49.80;99198.78;5153973;27;39991;-80
2023/10/10 19:30:30;;;;;;;7.27;4.53;;;;;;;17.62;50.34;99191.22;5154668;27;42203;-84
2023/10/10 19:32:58;;;;;;;7.47;4.73;;;;;;;17.52;50.53;99180.47;5136345;27;42769;-82
2023/10/10 19:35:27;;;;;;;8.23;4.87;;;;;;;17.50;50.90;99188.63;5136106;27;41565;-82
2023/10/10 19:37:56;;;;;;;7.80;5.00;;;;;;;17.41;50.79;99194.78;5134354;27;39154;-80
2023/10/10 19:40:28;;;;;;;8.40;4.50;;;;;;;17.39;50.71;99194.06;5151952;27;42307;-81
2023/10/10 19:42:59;;;;;;;6.17;4.03;;;;;;;17.34;51.02;99193.59;5152532;27;41648;-83
2023/10/10 19:45:28;;;;;;;9.50;4.83;;;;;;;17.31;51.39;99193.03;5153440;27;42103;-80
2023/10/10 19:48:05;;;;;;;6.73;4.93;;;;;;;17.25;51.20;99199.72;5152627;27;39177;-83
2023/10/10 19:50:42;;;;;;;7.27;4.90;;;;;;;17.19;51.73;99194.88;5152685;27;42143;-83
2023/10/10 19:53:11;;;;;;;7.90;4.23;;;;;;;17.08;51.58;99181.56;5135174;27;43247;-80
2023/10/10 19:55:41;;;;;;;7.50;4.17;;;;;;;17.05;52.23;99185.34;5135232;27;41243;-80
2023/10/10 19:58:10;;;;;;;7.93;4.33;;;;;;;17.03;52.18;99189.13;5135225;27;40406;-80
2023/10/10 20:00:41;;;;;;;10.03;4.53;;;;;;;16.98;52.33;99188.66;5152548;27;41642;-80
2023/10/10 20:03:11;;;;;;;8.20;4.53;;;;;;;16.94;52.85;99195.25;5152117;27;42744;-82
2023/10/10 20:05:39;;;;;;;11.13;5.80;;;;;;;16.87;52.49;99185.06;5152090;27;42836;-80
2023/10/10 20:08:09;;;;;;;9.63;4.97;;;;;;;16.86;53.32;99177.16;5135237;27;38843;-82
2023/10/10 20:10:37;;;;;;;6.27;4.03;;;;;;;16.83;53.78;99172.91;5151501;27;42207;-83
2023/10/10 20:13:06;;;;;;;7.10;4.30;;;;;;;16.81;54.06;99174.03;5152913;27;43604;-79
2023/10/10 20:15:39;;;;;;;8.27;4.00;;;;;;;16.77;53.85;99173.41;5134919;27;41386;-81
2023/10/10 20:18:08;;;;;;;7.70;4.43;;;;;;;16.70;53.77;99172.22;5151461;27;39964;-81
2023/10/10 20:20:39;;;;;;;10.10;4.77;;;;;;;16.59;54.35;99156.19;5153690;27;41958;-79